Evelyn Maersk — OXHV2 — position and weather

sailwx.info

Track history (hours):
 
Tides and Currents Weather Stations Pressure Air Temp Water Temp Dewpoint Dewpoint Depression Visibility Wind Speed Wind Dir Waves Ship Positions

Evelyn Maersk

Last reported at 2016-Sep-26 08:15 UTC. Time now 2016-Sep-30 16:58 UTC.
Position N 23°44' E 118°11'.

Length 398 m; draft 14 m.

Type: Ship (hazmat cat A). MMSI: 220496000.

Date/timePositionNaut miles runAvg speedWind from/ knotsBaromVisibWave heightAir tempDewpointWater temp
2016-Sep-26 08:15N 23°44' E 118°11'40216.3
2016-Sep-25 07:33N 29°08' E 122°36'4214.1
2016-Sep-25 04:33N 29°47' E 122°16'13 2.1
2016-Sep-24 22:18N 29°54' E 122°02'0 0.0
2016-Sep-24 19:24N 29°54' E 122°02'0 0.0
2016-Sep-24 18:30N 29°54' E 122°02'0 0.0
2016-Sep-24 17:30N 29°54' E 122°02'0 0.0
2016-Sep-24 16:30N 29°54' E 122°02'0 0.0
2016-Sep-24 14:12N 29°54' E 122°02'0 0.0
2016-Sep-24 12:30N 29°54' E 122°02'0 0.0
2016-Sep-24 10:24N 29°54' E 122°02'23 3.3
2016-Sep-24 03:33N 29°46' E 122°27'2 2.4
2016-Sep-24 02:33N 29°44' E 122°29'6 5.5
2016-Sep-24 01:33N 29°40' E 122°33'0 0.4
2016-Sep-24 00:30N 29°40' E 122°33'49 4.4
2016-Sep-23 13:31N 30°28' E 122°44'  
2016-Sep-17 05:10N 38°57' E 117°54'6 9.0
2016-Sep-17 04:34N 38°59' E 117°47'0 0.1
2016-Sep-17 00:28N 38°59' E 117°47'0 0.0
2016-Sep-16 17:28N 38°59' E 117°47'0 0.0
2016-Sep-16 15:28N 38°59' E 117°47'0 0.0
2016-Sep-16 12:22N 38°59' E 117°47'0 0.0
2016-Sep-16 09:28N 38°59' E 117°47'  
Track history (hours):
 
Tides and Currents Weather Stations Pressure Air Temp Water Temp Dewpoint Dewpoint Depression Visibility Wind Speed Wind Dir Waves Ship Positions

Evelyn Maersk

Last reported at 2016-Sep-26 08:15 UTC. Time now 2016-Sep-30 16:58 UTC.
Position N 23°44' E 118°11'.

Length 398 m; draft 14 m.

Type: Ship (hazmat cat A). MMSI: 220496000.

Date/timePositionNaut miles runAvg speedWind from/ knotsBaromVisibWave heightAir tempDewpointWater temp
2016-Sep-26 08:15N 23°44' E 118°11'40216.3
2016-Sep-25 07:33N 29°08' E 122°36'4214.1
2016-Sep-25 04:33N 29°47' E 122°16'13 2.1
2016-Sep-24 22:18N 29°54' E 122°02'0 0.0
2016-Sep-24 19:24N 29°54' E 122°02'0 0.0
2016-Sep-24 18:30N 29°54' E 122°02'0 0.0
2016-Sep-24 17:30N 29°54' E 122°02'0 0.0
2016-Sep-24 16:30N 29°54' E 122°02'0 0.0
2016-Sep-24 14:12N 29°54' E 122°02'0 0.0
2016-Sep-24 12:30N 29°54' E 122°02'0 0.0
2016-Sep-24 10:24N 29°54' E 122°02'23 3.3
2016-Sep-24 03:33N 29°46' E 122°27'2 2.4
2016-Sep-24 02:33N 29°44' E 122°29'6 5.5
2016-Sep-24 01:33N 29°40' E 122°33'0 0.4
2016-Sep-24 00:30N 29°40' E 122°33'49 4.4
2016-Sep-23 13:31N 30°28' E 122°44'  
2016-Sep-17 05:10N 38°57' E 117°54'6 9.0
2016-Sep-17 04:34N 38°59' E 117°47'0 0.1
2016-Sep-17 00:28N 38°59' E 117°47'0 0.0
2016-Sep-16 17:28N 38°59' E 117°47'0 0.0
2016-Sep-16 15:28N 38°59' E 117°47'0 0.0
2016-Sep-16 12:22N 38°59' E 117°47'0 0.0
2016-Sep-16 09:28N 38°59' E 117°47'  

Dump ship's entire track history